Nampa, ID

4:40 AM MST on December 11, 2019 (GMT -0700)
Nampa

Weather History for KMAN - October, 2019

Change the Weather History Date:

Wednesday, October 9, 2019

  Actual Average (KBOI) Record (KBOI)
Temperature  
Mean Temperature 42 °F -  
Max Temperature 48 °F 68 °F 90 °F (2015)
Min Temperature 35 °F 41 °F 18 °F (1985)
Degree Days  
Heating Degree Days 24    
Moisture  
Dew Point 22 °F    
Average Humidity 46    
Maximum Humidity 61    
Minimum Humidity 32    
Precipitation  
Precipitation 0.00 in - - ()
Sea Level Pressure  
Sea Level Pressure 30.10 in    
Wind  
Wind Speed 13 mph (NW)    
Max Wind Speed 23 mph    
Max Gust Speed 32 mph    
Visibility 10 miles    
Events      
Averages and records for this station are not official NWS values.
T = Trace of Precipitation, MM = Missing Value Source: NWS Daily Summary

Daily Weather History Graph

Daily Weather History Graph

Search for Another Location

Airport or City:

Astronomy

Oct. 09, 2019 Rise Set
Actual Time 7:52 AM MDT 7:13 PM MDT
Civil Twilight 7:24 AM MDT 7:41 PM MDT
Nautical Twilight 6:50 AM MDT 8:14 PM MDT
Astronomical Twilight 6:17 AM MDT 8:48 PM MDT
Moon 5:56 PM MDT (10/9) 3:33 AM MDT (10/9)
Length of Visible Light 12h 17m
Length of Day
11h 20m
Waxing Gibbous, 85% of the Moon is Illuminated
Oct 9
Waxing Gibbous
Oct 13
Full
Oct 21
Last Quarter
Oct 27
New
Nov 4
First Quarter

Hourly Weather History & Observations

Time (MDT) Temp. Windchill Dew Point Humidity Pressure Visibility Wind Dir Wind Speed Gust Speed Precip Events Conditions
12:15 AM 48.2 °F - 33.8 °F 58% 29.84 in 10.0 mi NW 12.7 mph 18.4 mph N/A   Unknown
12:55 AM 46.4 °F 41.1 °F 30.2 °F 53% 29.87 in 10.0 mi NW 11.5 mph 17.3 mph N/A   Unknown
1:15 AM 46.4 °F 41.1 °F 26.6 °F 46% 29.87 in 10.0 mi NW 11.5 mph 25.3 mph N/A   Unknown
1:35 AM 46.4 °F 41.5 °F 26.6 °F 46% 29.88 in 10.0 mi NW 10.4 mph - N/A   Overcast
1:55 AM 44.6 °F 38.8 °F 26.6 °F 49% 29.88 in 10.0 mi NW 11.5 mph 18.4 mph N/A   Overcast
2:15 AM 44.6 °F 38.8 °F 26.6 °F 49% 29.89 in 10.0 mi NW 11.5 mph 21.9 mph N/A   Overcast
2:35 AM 44.6 °F 37.2 °F 28.4 °F 53% 29.89 in 10.0 mi WNW 17.3 mph - N/A   Overcast
2:55 AM 44.6 °F 37.8 °F 28.4 °F 53% 29.90 in 10.0 mi NW 15.0 mph 23.0 mph N/A   Overcast
3:15 AM 42.8 °F 35.1 °F 26.6 °F 53% 29.90 in 10.0 mi NW 16.1 mph - N/A   Overcast
3:35 AM 42.8 °F 34.5 °F 24.8 °F 49% 29.91 in 10.0 mi NW 18.4 mph 24.2 mph N/A   Overcast
4:15 AM 41.0 °F 33.5 °F 24.8 °F 53% 29.93 in 10.0 mi NW 13.8 mph 21.9 mph N/A   Overcast
4:35 AM 41.0 °F 33.5 °F 24.8 °F 53% 29.94 in 10.0 mi NW 13.8 mph 21.9 mph N/A   Mostly Cloudy
4:55 AM 39.2 °F 31.2 °F 26.6 °F 61% 29.96 in 10.0 mi NW 13.8 mph 19.6 mph N/A   Unknown
5:15 AM 41.0 °F 32.8 °F 26.6 °F 57% 29.96 in 10.0 mi WNW 16.1 mph 23.0 mph N/A   Unknown
5:35 AM 39.2 °F 32.5 °F 24.8 °F 56% 29.97 in 10.0 mi WNW 10.4 mph 18.4 mph N/A   Unknown
5:55 AM 39.2 °F 32.0 °F 23.0 °F 52% 29.99 in 10.0 mi West 11.5 mph - N/A   Unknown
6:15 AM 39.2 °F 31.2 °F 23.0 °F 52% 29.99 in 10.0 mi West 13.8 mph - N/A   Unknown
6:35 AM 37.4 °F 30.8 °F 23.0 °F 56% 30.00 in 10.0 mi West 9.2 mph 15.0 mph N/A   Unknown
6:55 AM 39.2 °F 32.5 °F 23.0 °F 52% 30.01 in 10.0 mi NW 10.4 mph - N/A   Unknown
7:15 AM 39.2 °F 31.6 °F 23.0 °F 52% 30.01 in 10.0 mi WNW 12.7 mph - N/A   Unknown
7:35 AM 39.2 °F 31.6 °F 23.0 °F 52% 30.02 in 10.0 mi WNW 12.7 mph - N/A   Unknown
7:55 AM 39.2 °F 31.6 °F 23.0 °F 52% 30.03 in 10.0 mi WNW 12.7 mph - N/A   Overcast
8:15 AM 39.2 °F 30.8 °F 23.0 °F 52% 30.03 in 10.0 mi WNW 15.0 mph - N/A   Overcast
8:35 AM 39.2 °F 31.6 °F 24.8 °F 56% 30.04 in 10.0 mi WNW 12.7 mph - N/A   Overcast
8:55 AM 39.2 °F 31.6 °F 24.8 °F 56% 30.05 in 10.0 mi West 12.7 mph - N/A   Mostly Cloudy
9:15 AM 39.2 °F 32.0 °F 24.8 °F 56% 30.07 in 10.0 mi WNW 11.5 mph - N/A   Mostly Cloudy
9:35 AM 39.2 °F 32.0 °F 24.8 °F 56% 30.09 in 10.0 mi WNW 11.5 mph - N/A   Overcast
9:55 AM 39.2 °F 32.0 °F 24.8 °F 56% 30.09 in 10.0 mi WNW 11.5 mph - N/A   Overcast
10:15 AM 41.0 °F 32.8 °F 23.0 °F 49% 30.10 in 10.0 mi WNW 16.1 mph 21.9 mph N/A   Mostly Cloudy
10:55 AM 41.0 °F 32.5 °F 21.2 °F 45% 30.11 in 10.0 mi NW 17.3 mph 25.3 mph N/A   Overcast
11:15 AM 42.8 °F 34.5 °F 23.0 °F 46% 30.11 in 10.0 mi NW 18.4 mph 26.5 mph N/A   Mostly Cloudy
11:35 AM 42.8 °F 33.5 °F 21.2 °F 42% 30.11 in 10.0 mi WNW 23.0 mph - N/A   Partly Cloudy
11:55 AM 44.6 °F 36.6 °F 21.2 °F 39% 30.11 in 10.0 mi WNW 19.6 mph 31.1 mph N/A   Partly Cloudy
12:35 PM 44.6 °F 36.1 °F 21.2 °F 39% 30.12 in 10.0 mi NNW 21.9 mph 32.2 mph N/A   Partly Cloudy
12:55 PM 46.4 °F 38.5 °F 19.4 °F 34% 30.13 in 10.0 mi NW 21.9 mph 29.9 mph N/A   Scattered Clouds
1:15 PM 46.4 °F 39.0 °F 19.4 °F 34% 30.13 in 10.0 mi WNW 19.6 mph 29.9 mph N/A   Scattered Clouds
1:35 PM 46.4 °F 39.0 °F 19.4 °F 34% 30.13 in 10.0 mi NW 19.6 mph 32.2 mph N/A   Mostly Cloudy
1:55 PM 44.6 °F 36.9 °F 17.6 °F 34% 30.13 in 10.0 mi NW 18.4 mph 24.2 mph N/A   Overcast
2:15 PM 46.4 °F 39.0 °F 17.6 °F 32% 30.14 in 10.0 mi NW 19.6 mph - N/A   Overcast
2:35 PM 46.4 °F 39.8 °F 17.6 °F 32% 30.14 in 10.0 mi NW 16.1 mph 23.0 mph N/A   Overcast
2:55 PM 46.4 °F 40.1 °F 17.6 °F 32% 30.14 in 10.0 mi NW 15.0 mph 21.9 mph N/A   Overcast
3:15 PM 46.4 °F 40.7 °F 17.6 °F 32% 30.14 in 10.0 mi NW 12.7 mph 20.7 mph N/A   Overcast
3:35 PM 46.4 °F 39.8 °F 17.6 °F 32% 30.14 in 10.0 mi NW 16.1 mph - N/A   Overcast
3:55 PM 46.4 °F 40.4 °F 19.4 °F 34% 30.15 in 10.0 mi NW 13.8 mph 20.7 mph N/A   Mostly Cloudy
4:15 PM 46.4 °F 39.8 °F 17.6 °F 32% 30.15 in 10.0 mi NW 16.1 mph 21.9 mph N/A   Mostly Cloudy
4:35 PM 46.4 °F 39.8 °F 19.4 °F 34% 30.16 in 10.0 mi NW 16.1 mph - N/A   Overcast
4:55 PM 46.4 °F 41.5 °F 19.4 °F 34% 30.16 in 10.0 mi NNW 10.4 mph 20.7 mph N/A   Overcast
5:15 PM 46.4 °F 39.8 °F 19.4 °F 34% 30.17 in 10.0 mi NNW 16.1 mph - N/A   Overcast
5:35 PM 46.4 °F 41.1 °F 19.4 °F 34% 30.18 in 10.0 mi NW 11.5 mph 20.7 mph N/A   Overcast
5:55 PM 46.4 °F 40.4 °F 19.4 °F 34% 30.19 in 10.0 mi NNW 13.8 mph 21.9 mph N/A   Overcast
6:15 PM 46.4 °F 39.8 °F 19.4 °F 34% 30.20 in 10.0 mi NNW 16.1 mph 21.9 mph N/A   Overcast
6:35 PM 44.6 °F 37.8 °F 19.4 °F 37% 30.20 in 10.0 mi North 15.0 mph 20.7 mph N/A   Overcast
6:55 PM 44.6 °F 38.8 °F 19.4 °F 37% 30.22 in 10.0 mi NNW 11.5 mph - N/A   Scattered Clouds
7:15 PM 42.8 °F 35.8 °F 21.2 °F 42% 30.23 in 10.0 mi NNW 13.8 mph - N/A   Clear
7:35 PM 42.8 °F 36.2 °F 19.4 °F 39% 30.23 in 10.0 mi NNW 12.7 mph 20.7 mph N/A   Clear
7:55 PM 42.8 °F 36.6 °F 19.4 °F 39% 30.24 in 10.0 mi NNW 11.5 mph - N/A   Unknown
8:15 PM 41.0 °F 34.3 °F 19.4 °F 42% 30.25 in 10.0 mi NNW 11.5 mph - N/A   Unknown
8:35 PM 41.0 °F 34.3 °F 19.4 °F 42% 30.26 in 10.0 mi NNW 11.5 mph - N/A   Unknown
8:55 PM 41.0 °F 35.2 °F 21.2 °F 45% 30.26 in 10.0 mi NW 9.2 mph - N/A   Unknown
9:15 PM 39.2 °F 33.6 °F 21.2 °F 49% 30.27 in 10.0 mi NW 8.1 mph - N/A   Unknown
9:35 PM 39.2 °F 32.5 °F 21.2 °F 49% 30.27 in 10.0 mi NW 10.4 mph - N/A   Unknown
9:55 PM 37.4 °F 30.8 °F 21.2 °F 52% 30.28 in 10.0 mi NW 9.2 mph - N/A   Unknown
10:15 PM 37.4 °F 31.4 °F 21.2 °F 52% 30.29 in 10.0 mi NW 8.1 mph - N/A   Unknown
10:35 PM 37.4 °F 30.3 °F 21.2 °F 52% 30.29 in 10.0 mi NW 10.4 mph - N/A   Clear
10:55 PM 37.4 °F 30.8 °F 21.2 °F 52% 30.30 in 10.0 mi NW 9.2 mph - N/A   Clear
11:15 PM 35.6 °F 29.9 °F 21.2 °F 56% 30.31 in 10.0 mi NW 6.9 mph 12.7 mph N/A   Clear
11:35 PM 35.6 °F 28.6 °F 21.2 °F 56% 30.31 in 10.0 mi WNW 9.2 mph - N/A   Clear
11:55 PM 35.6 °F 29.2 °F 21.2 °F 56% 30.32 in 10.0 mi WNW 8.1 mph - N/A   Clear